Akron Fulton International Airport Akron US
ICAO: KAKR
IATA: AKC
Category: Medium
Scheduled Services: No

Elevation: 1067 ft
TransAlt. 18000 ft.

Airport Communications:
APP/DEP:118.6
ASOS:126.825
CTAF/UNICOM:123.075
CLEVELAND RDO:114.4

KAKR Zoom In..

Runways:

(A) RW 01 length 2337 ft width 100 ft
LOC 110.90 / hdg 8

(B) RW 07 length 6336 ft width 150 ft
LOC 110.90 / hdg 69

(C) RW 19 length 2337 ft width 100 ft
LOC 110.90 / hdg 188

(D) RW 25 length 6336 ft width 150 ft
LOC 110.90 / hdg 249

Location; KAKR
Day. 25 / Time. 11.54 Zulu
* Altimeter: 29.85
* Temperature: 12° c. 53.6°f.
* Wind from: 360° Speed 03 kn.
Dewpoint: 10° c.
Visibility: 4 Statute Miles.
Clouds: Broken 500 ft.
Clouds: Overcast 1000 ft.
Conditions: Mist.

KAKR 251154Z AUTO 36003KT 4SM BR BKN005 OVC010 12/10 A2985 RMK AO2 SLP109 60000 T01170100 10117 20111 55001


Wind From 360°
Speed 03 kn.

  YouTube Music Video
 
jpsmedia.com for Web Design  worldairports.se 2018   terms of use